Aviation Digital Data Service (ADDS)

Output produced by METARs form (1146 UTC 25 October 2020)
found at http://aviationweather.gov/metar/data/
 
METAR text: KCHD 250347Z 00000KT 10SM OVC200 24/10 A2982
Conditions at: KCHD (CHANDLER , AZ, US) observed 0347 UTC 25 October 2020
Temperature: 24.0°C (75°F)
Dewpoint: 10.0°C (50°F) [RH = 41%]
Pressure (altimeter): 29.82 inches Hg (1009.9 mb)
Winds: calm
Visibility: 10 or more miles (16+ km)
Ceiling: 20000 feet AGL
Clouds: overcast cloud deck at 20000 feet AGL
Weather: no significant weather observed at this time

METAR text: KCHD 250247Z 00000KT 10SM OVC200 25/09 A2983
Conditions at: KCHD (CHANDLER , AZ, US) observed 0247 UTC 25 October 2020
Temperature: 25.0°C (77°F)
Dewpoint: 9.0°C (48°F) [RH = 36%]
Pressure (altimeter): 29.83 inches Hg (1010.2 mb)
Winds: calm
Visibility: 10 or more miles (16+ km)
Ceiling: 20000 feet AGL
Clouds: overcast cloud deck at 20000 feet AGL
Weather: no significant weather observed at this time

METAR text: KCHD 250147Z 00000KT 10SM OVC200 26/08 A2982
Conditions at: KCHD (CHANDLER , AZ, US) observed 0147 UTC 25 October 2020
Temperature: 26.0°C (79°F)
Dewpoint: 8.0°C (46°F) [RH = 32%]
Pressure (altimeter): 29.82 inches Hg (1009.9 mb)
Winds: calm
Visibility: 10 or more miles (16+ km)
Ceiling: 20000 feet AGL
Clouds: overcast cloud deck at 20000 feet AGL
Weather: no significant weather observed at this time

METAR text: KCHD 250047Z 00000KT 10SM BKN150 OVC200 28/07 A2983
Conditions at: KCHD (CHANDLER , AZ, US) observed 0047 UTC 25 October 2020
Temperature: 28.0°C (82°F)
Dewpoint: 7.0°C (45°F) [RH = 27%]
Pressure (altimeter): 29.83 inches Hg (1010.2 mb)
Winds: calm
Visibility: 10 or more miles (16+ km)
Ceiling: 15000 feet AGL
Clouds: broken clouds at 15000 feet AGL
overcast cloud deck at 20000 feet AGL
Weather: no significant weather observed at this time

METAR text: KCHD 242347Z VRB05KT 10SM BKN150 OVC200 29/07 A2983
Conditions at: KCHD (CHANDLER , AZ, US) observed 2347 UTC 24 October 2020
Temperature: 29.0°C (84°F)
Dewpoint: 7.0°C (45°F) [RH = 25%]
Pressure (altimeter): 29.83 inches Hg (1010.2 mb)
Winds: variable direction winds at 6 MPH (5 knots; 2.6 m/s)
Visibility: 10 or more miles (16+ km)
Ceiling: 15000 feet AGL
Clouds: broken clouds at 15000 feet AGL
overcast cloud deck at 20000 feet AGL
Weather: no significant weather observed at this time